Time;durP1;ratioP1;P1;durP2;ratioP2;P2;SDS_P1;SDS_P2;PMS_P1;PMS_P2;Temp;Humidity;BMP_temperature;BMP_pressure;BME280_temperature;BME280_humidity;BME280_pressure;Samples;Min_cycle;Max_cycle;Signal;HPM_P1;HPM_P2
2023/03/02 00:01:23;;;;;;;60.17;32.35;;;-1.90;87.90;;;;;;5024865;28;20026;-68
2023/03/02 00:03:49;;;;;;;58.78;31.73;;;-2.00;88.00;;;;;;5027399;28;20034;-67
2023/03/02 00:06:15;;;;;;;63.65;35.25;;;-2.00;87.20;;;;;;5035575;28;20044;-68
2023/03/02 00:08:41;;;;;;;56.50;30.95;;;-2.10;87.50;;;;;;5029917;28;20105;-68
2023/03/02 00:11:06;;;;;;;61.72;34.72;;;-2.00;86.00;;;;;;5022054;28;20030;-68
2023/03/02 00:13:37;;;;;;;63.00;35.00;;;-2.00;86.80;;;;;;5021792;28;20033;-68
2023/03/02 00:16:05;;;;;;;59.28;31.17;;;-2.10;87.80;;;;;;5022671;28;20139;-68
2023/03/02 00:18:34;;;;;;;62.70;34.28;;;-2.10;86.70;;;;;;5020837;28;20053;-68
2023/03/02 00:21:02;;;;;;;57.33;30.35;;;-2.20;87.80;;;;;;5031361;28;20473;-67
2023/03/02 00:23:31;;;;;;;57.28;31.83;;;-2.20;86.20;;;;;;5031318;28;20108;-68
2023/03/02 00:25:56;;;;;;;56.20;31.30;;;-2.30;87.20;;;;;;5027125;28;20026;-67
2023/03/02 00:28:22;;;;;;;59.00;32.00;;;-2.20;85.70;;;;;;5039092;28;20033;-66
2023/03/02 00:30:47;;;;;;;66.72;35.05;;;-2.20;86.70;;;;;;5027506;28;20065;-67
2023/03/02 00:33:13;;;;;;;63.63;34.70;;;-2.20;86.60;;;;;;5033155;28;20043;-67
2023/03/02 00:35:40;;;;;;;62.50;33.17;;;-2.20;86.40;;;;;;5037702;28;20032;-67
2023/03/02 00:38:07;;;;;;;73.68;36.70;;;-2.10;84.90;;;;;;5032484;28;20040;-68
2023/03/02 00:40:34;;;;;;;68.20;37.38;;;-1.90;83.90;;;;;;5029951;28;20381;-69
2023/03/02 00:42:59;;;;;;;60.50;32.10;;;-1.80;84.20;;;;;;5027713;28;20028;-68
2023/03/02 00:45:25;;;;;;;59.97;33.47;;;-1.70;84.50;;;;;;5026663;28;20322;-68
2023/03/02 00:47:51;;;;;;;62.05;34.40;;;-1.60;84.80;;;;;;5029765;28;20044;-67
2023/03/02 00:50:19;;;;;;;60.13;32.13;;;-1.40;83.90;;;;;;5030994;28;20041;-66
2023/03/02 00:52:47;;;;;;;62.35;34.80;;;-1.20;84.40;;;;;;5023362;28;20037;-68
2023/03/02 00:55:19;;;;;;;62.05;34.63;;;-1.10;86.30;;;;;;5033447;28;20033;-68
2023/03/02 00:57:53;;;;;;;63.03;33.95;;;-1.00;86.10;;;;;;5033913;28;20033;-67
2023/03/02 01:00:27;;;;;;;63.25;33.15;;;-0.90;87.40;;;;;;5026704;28;20108;-67
2023/03/02 01:02:53;;;;;;;53.25;30.45;;;-0.90;88.90;;;;;;5024449;28;20037;-67
2023/03/02 01:05:21;;;;;;;54.45;31.35;;;-0.80;88.40;;;;;;5029236;28;20037;-67
2023/03/02 01:07:47;;;;;;;62.17;33.38;;;-0.80;89.40;;;;;;5018781;28;20053;-68
2023/03/02 01:10:16;;;;;;;53.95;31.17;;;-0.70;89.80;;;;;;5029803;28;20030;-68
2023/03/02 01:12:41;;;;;;;55.42;32.72;;;-0.60;89.30;;;;;;5032082;28;20070;-68
2023/03/02 01:15:08;;;;;;;54.38;31.65;;;-0.50;91.10;;;;;;5029202;28;20029;-68
2023/03/02 01:17:34;;;;;;;52.65;30.40;;;-0.40;91.50;;;;;;5019941;28;20026;-68
2023/03/02 01:20:00;;;;;;;56.63;32.08;;;-0.30;93.40;;;;;;5033688;28;20433;-67
2023/03/02 01:22:28;;;;;;;56.53;30.52;;;-0.30;94.20;;;;;;5024769;28;20057;-67
2023/03/02 01:24:53;;;;;;;52.67;30.23;;;-0.30;95.10;;;;;;5026389;28;20029;-67
2023/03/02 01:27:19;;;;;;;62.13;32.78;;;-0.30;95.10;;;;;;5030603;28;20044;-67
2023/03/02 01:29:45;;;;;;;57.65;31.65;;;-0.20;95.30;;;;;;5028139;28;20292;-66
2023/03/02 01:32:10;;;;;;;55.50;32.00;;;-0.30;96.20;;;;;;5040639;28;20036;-68
2023/03/02 01:34:38;;;;;;;53.20;30.20;;;-0.20;96.10;;;;;;5029424;28;20326;-68
2023/03/02 01:37:04;;;;;;;56.15;32.38;;;-0.10;96.20;;;;;;5040627;28;20021;-67
2023/03/02 01:39:29;;;;;;;54.33;31.67;;;-0.10;96.80;;;;;;5031998;28;20359;-68
2023/03/02 01:41:55;;;;;;;57.42;31.90;;;-0.10;97.00;;;;;;5029979;28;20477;-67
2023/03/02 01:44:38;;;;;;;58.13;34.10;;;-0.10;96.90;;;;;;5034737;28;20060;-68
2023/03/02 01:47:21;;;;;;;53.55;31.33;;;-0.10;97.20;;;;;;5036822;28;20021;-68
2023/03/02 01:50:01;;;;;;;60.58;34.45;;;-0.10;96.90;;;;;;5022045;28;20029;-67
2023/03/02 01:52:30;;;;;;;54.72;32.47;;;0.00;97.20;;;;;;5019787;28;20097;-66
2023/03/02 01:55:00;;;;;;;58.85;32.20;;;0.00;97.10;;;;;;5037900;28;20073;-67
2023/03/02 01:57:30;;;;;;;54.83;32.80;;;0.00;97.10;;;;;;5027403;28;20127;-68
2023/03/02 02:00:00;;;;;;;62.47;33.42;;;0.10;97.30;;;;;;5026596;28;20121;-67
2023/03/02 02:02:27;;;;;;;50.92;30.92;;;0.10;97.40;;;;;;5030922;28;20326;-67
2023/03/02 02:04:54;;;;;;;52.88;30.75;;;0.20;97.40;;;;;;5031739;28;20025;-67
2023/03/02 02:07:20;;;;;;;61.28;35.40;;;0.20;98.00;;;;;;5036963;28;20065;-67
2023/03/02 02:09:50;;;;;;;58.15;32.97;;;0.20;98.00;;;;;;5021377;28;20227;-67
2023/03/02 02:12:18;;;;;;;57.95;33.13;;;0.20;98.00;;;;;;5026115;28;20056;-67
2023/03/02 02:14:48;;;;;;;60.10;33.83;;;0.30;98.00;;;;;;5034713;28;20460;-67
2023/03/02 02:17:15;;;;;;;52.15;30.58;;;0.30;98.00;;;;;;5018288;28;20018;-67
2023/03/02 02:20:11;;;;;;;64.30;34.20;;;0.40;98.00;;;;;;5034063;28;20108;-67
2023/03/02 02:22:54;;;;;;;57.83;32.20;;;0.40;98.00;;;;;;5033714;28;20025;-67
2023/03/02 02:25:54;;;;;;;58.17;32.70;;;0.50;98.00;;;;;;5033042;28;20030;-67
2023/03/02 02:28:50;;;;;;;55.25;28.77;;;0.60;97.60;;;;;;5021424;28;20026;-67
2023/03/02 02:31:44;;;;;;;52.28;28.90;;;0.90;98.00;;;;;;5024322;28;20077;-67
2023/03/02 02:34:21;;;;;;;55.70;31.55;;;1.00;98.00;;;;;;5028298;28;20026;-67
2023/03/02 02:36:48;;;;;;;53.60;31.42;;;1.00;98.00;;;;;;5029231;28;20021;-67
2023/03/02 02:39:21;;;;;;;53.28;31.52;;;1.10;98.00;;;;;;5038997;28;20180;-67
2023/03/02 02:41:53;;;;;;;50.15;28.95;;;1.10;98.00;;;;;;5027410;28;20369;-67
2023/03/02 02:44:18;;;;;;;53.08;31.02;;;1.10;98.00;;;;;;5026461;28;20461;-67
2023/03/02 02:46:47;;;;;;;56.42;30.55;;;1.10;98.00;;;;;;5033657;28;20026;-67
2023/03/02 02:49:35;;;;;;;54.67;31.80;;;1.10;98.00;;;;;;5057653;28;20037;-67
2023/03/02 02:52:02;;;;;;;51.67;28.88;;;1.20;98.00;;;;;;5032648;28;20414;-67
2023/03/02 02:54:30;;;;;;;55.67;30.85;;;1.30;98.00;;;;;;5029089;28;20040;-67
2023/03/02 02:56:59;;;;;;;57.33;33.08;;;1.20;98.00;;;;;;5023308;28;20315;-67
2023/03/02 02:59:32;;;;;;;52.65;30.50;;;1.30;98.00;;;;;;5038273;28;20044;-66
2023/03/02 03:01:58;;;;;;;54.80;32.20;;;1.30;98.00;;;;;;5026744;28;20028;-67
2023/03/02 03:04:29;;;;;;;52.22;30.90;;;1.30;98.00;;;;;;5027165;28;20022;-66
2023/03/02 03:07:04;;;;;;;55.58;31.35;;;1.30;98.00;;;;;;5031398;28;20060;-67
2023/03/02 03:09:33;;;;;;;55.05;30.50;;;1.40;98.00;;;;;;5023648;28;20185;-67
2023/03/02 03:12:12;;;;;;;51.22;29.73;;;1.30;98.00;;;;;;5031772;28;20053;-66
2023/03/02 03:14:40;;;;;;;52.88;30.75;;;1.10;98.00;;;;;;5025727;28;20422;-67
2023/03/02 03:17:12;;;;;;;55.75;32.22;;;1.10;98.00;;;;;;5021558;28;20070;-66
2023/03/02 03:19:45;;;;;;;56.67;32.67;;;1.10;98.00;;;;;;5027355;28;20028;-67
2023/03/02 03:22:14;;;;;;;55.63;31.43;;;1.10;98.00;;;;;;5035253;28;20481;-66
2023/03/02 03:24:41;;;;;;;54.08;31.73;;;1.00;98.00;;;;;;5027962;28;20045;-66
2023/03/02 03:27:14;;;;;;;57.05;32.50;;;1.00;98.00;;;;;;5028352;28;20356;-66
2023/03/02 03:29:49;;;;;;;53.23;30.00;;;1.10;98.00;;;;;;5023551;28;20033;-66
2023/03/02 03:32:14;;;;;;;55.88;30.40;;;1.20;98.00;;;;;;5026056;28;20276;-67
2023/03/02 03:34:40;;;;;;;52.72;29.05;;;1.30;98.00;;;;;;5026854;28;20048;-68
2023/03/02 03:37:16;;;;;;;54.10;29.95;;;1.30;98.00;;;;;;5026487;28;20037;-67
2023/03/02 03:39:42;;;;;;;57.88;31.50;;;1.30;98.00;;;;;;5030836;28;20022;-67
2023/03/02 03:42:08;;;;;;;56.95;30.95;;;1.40;98.00;;;;;;5028055;28;20044;-67
2023/03/02 03:44:34;;;;;;;64.40;33.17;;;1.40;98.00;;;;;;5034590;28;20334;-67
2023/03/02 03:46:59;;;;;;;54.58;30.63;;;1.40;98.00;;;;;;5028986;28;20029;-68
2023/03/02 03:49:28;;;;;;;58.17;30.77;;;1.40;98.00;;;;;;5023662;28;20026;-67
2023/03/02 03:52:03;;;;;;;55.83;31.25;;;1.30;98.00;;;;;;5036352;28;20034;-67
2023/03/02 03:54:29;;;;;;;60.55;31.17;;;1.30;98.00;;;;;;5024689;28;20030;-67
2023/03/02 03:56:56;;;;;;;57.03;30.02;;;1.30;98.00;;;;;;5028922;28;20028;-67
2023/03/02 03:59:23;;;;;;;51.28;29.73;;;1.30;98.00;;;;;;5032665;28;20036;-67
2023/03/02 04:01:56;;;;;;;56.78;30.73;;;1.40;98.00;;;;;;5028439;28;20029;-67
2023/03/02 04:04:30;;;;;;;54.63;30.17;;;1.40;98.00;;;;;;5027741;28;20026;-67
2023/03/02 04:06:56;;;;;;;59.47;32.47;;;1.40;98.00;;;;;;5021947;28;20111;-66
2023/03/02 04:09:22;;;;;;;57.25;30.90;;;1.40;98.00;;;;;;5039678;28;20163;-66
2023/03/02 04:11:51;;;;;;;54.28;30.58;;;1.30;98.00;;;;;;5032426;28;20029;-66
2023/03/02 04:14:17;;;;;;;55.90;31.63;;;1.30;98.00;;;;;;5026938;28;20506;-67
2023/03/02 04:16:43;;;;;;;50.60;29.05;;;1.30;98.00;;;;;;5023369;28;20045;-67
2023/03/02 04:19:10;;;;;;;52.22;29.17;;;1.30;98.00;;;;;;5031800;28;20017;-67
2023/03/02 04:21:43;;;;;;;54.03;32.63;;;1.30;98.00;;;;;;5026795;28;20014;-67
2023/03/02 04:24:10;;;;;;;51.15;29.40;;;1.40;98.00;;;;;;5029788;28;20039;-66
2023/03/02 04:26:38;;;;;;;57.50;29.88;;;1.40;98.00;;;;;;5028308;28;20039;-65
2023/03/02 04:29:04;;;;;;;57.50;31.70;;;1.40;98.00;;;;;;5028432;28;20060;-66
2023/03/02 04:31:30;;;;;;;54.67;31.05;;;1.30;98.00;;;;;;5028496;28;20044;-67
2023/03/02 04:33:56;;;;;;;59.03;31.15;;;1.30;98.00;;;;;;5025407;28;20029;-66
2023/03/02 04:36:22;;;;;;;61.03;33.92;;;1.30;98.00;;;;;;5024927;28;20032;-66
2023/03/02 04:38:48;;;;;;;65.30;34.58;;;1.20;98.00;;;;;;5029793;28;20108;-67
2023/03/02 04:41:15;;;;;;;56.10;32.88;;;1.00;98.00;;;;;;5026612;28;20030;-67
2023/03/02 04:43:40;;;;;;;62.83;35.33;;;0.80;98.00;;;;;;5032585;28;20025;-67
2023/03/02 04:46:06;;;;;;;55.75;33.63;;;0.60;98.00;;;;;;5021777;28;20022;-67
2023/03/02 04:48:32;;;;;;;54.30;32.85;;;0.50;98.00;;;;;;5025933;28;20071;-67
2023/03/02 04:50:57;;;;;;;64.20;35.92;;;0.40;98.00;;;;;;5032495;28;20430;-66
2023/03/02 04:53:23;;;;;;;64.28;35.67;;;0.30;98.00;;;;;;5031003;28;20025;-66
2023/03/02 04:55:48;;;;;;;58.75;33.22;;;0.30;98.00;;;;;;5032916;28;20120;-67
2023/03/02 04:58:14;;;;;;;55.05;31.60;;;0.30;98.00;;;;;;5033244;28;20041;-68
2023/03/02 05:00:40;;;;;;;60.60;33.38;;;0.40;98.00;;;;;;5023855;28;20046;-67
2023/03/02 05:03:06;;;;;;;53.95;32.10;;;0.40;98.00;;;;;;5031215;28;20452;-67
2023/03/02 05:05:32;;;;;;;58.97;33.45;;;0.40;98.00;;;;;;5019432;28;20026;-67
2023/03/02 05:07:58;;;;;;;58.47;33.47;;;0.50;98.00;;;;;;5024383;28;20033;-67
2023/03/02 05:10:25;;;;;;;62.75;34.30;;;0.40;98.00;;;;;;5028511;28;20033;-67
2023/03/02 05:13:01;;;;;;;59.75;34.40;;;0.30;98.00;;;;;;5027549;28;20059;-67
2023/03/02 05:15:29;;;;;;;63.45;34.33;;;0.20;98.00;;;;;;5022852;28;20033;-68
2023/03/02 05:17:55;;;;;;;60.00;32.53;;;0.10;98.00;;;;;;5025870;28;20026;-67
2023/03/02 05:20:26;;;;;;;62.17;35.10;;;0.10;98.00;;;;;;5029762;28;20030;-67
2023/03/02 05:22:57;;;;;;;65.10;34.03;;;0.10;98.00;;;;;;5026528;28;20116;-67
2023/03/02 05:25:24;;;;;;;61.28;34.85;;;0.00;98.00;;;;;;5024863;28;20022;-68
2023/03/02 05:27:49;;;;;;;70.07;36.17;;;0.00;98.00;;;;;;5030378;28;20108;-67
2023/03/02 05:30:16;;;;;;;65.90;33.58;;;-0.10;98.00;;;;;;5027479;28;20124;-67
2023/03/02 05:32:41;;;;;;;66.82;35.05;;;-0.10;97.80;;;;;;5021742;28;20040;-67
2023/03/02 05:35:07;;;;;;;65.32;34.70;;;0.00;97.60;;;;;;5021773;28;20025;-67
2023/03/02 05:37:33;;;;;;;69.70;36.88;;;0.00;97.60;;;;;;5024651;28;20046;-67
2023/03/02 05:40:02;;;;;;;69.07;36.70;;;0.00;97.60;;;;;;5021692;28;20112;-67
2023/03/02 05:42:27;;;;;;;63.85;34.80;;;0.00;97.90;;;;;;5029267;28;20461;-68
2023/03/02 05:44:53;;;;;;;62.17;33.92;;;0.00;97.40;;;;;;5024375;28;20037;-67
2023/03/02 05:47:18;;;;;;;58.72;33.22;;;0.00;97.50;;;;;;5023536;28;20037;-67
2023/03/02 05:49:46;;;;;;;62.00;34.42;;;0.10;96.70;;;;;;5025252;28;20373;-67
2023/03/02 05:52:12;;;;;;;60.88;34.25;;;0.10;98.00;;;;;;5023115;28;20823;-67
2023/03/02 05:54:38;;;;;;;61.30;33.75;;;0.20;97.90;;;;;;5026449;28;20037;-68
2023/03/02 05:57:03;;;;;;;58.70;31.95;;;0.20;97.90;;;;;;5015682;28;20316;-67
2023/03/02 05:59:31;;;;;;;72.00;36.40;;;0.20;97.70;;;;;;5024842;28;20038;-67
2023/03/02 06:01:58;;;;;;;69.70;35.42;;;0.20;98.00;;;;;;5019560;28;20025;-68
2023/03/02 06:04:24;;;;;;;60.00;33.13;;;0.20;97.80;;;;;;5019286;28;20033;-67
2023/03/02 06:06:50;;;;;;;60.83;35.15;;;0.20;98.00;;;;;;5026082;28;20065;-67
2023/03/02 06:09:15;;;;;;;64.30;36.25;;;0.10;97.80;;;;;;5028248;28;20457;-68
2023/03/02 06:11:43;;;;;;;69.35;38.03;;;0.10;97.80;;;;;;5021423;28;20030;-67
2023/03/02 06:14:09;;;;;;;63.20;34.53;;;0.10;97.70;;;;;;5025507;28;20087;-67
2023/03/02 06:16:36;;;;;;;63.67;34.63;;;0.10;97.30;;;;;;5024904;28;20033;-67
2023/03/02 06:19:06;;;;;;;65.72;35.78;;;0.10;97.80;;;;;;5029767;28;20024;-67
2023/03/02 06:21:32;;;;;;;61.58;33.75;;;0.10;97.60;;;;;;5024751;28;20026;-67
2023/03/02 06:23:57;;;;;;;65.00;35.30;;;0.20;97.70;;;;;;5027651;28;20033;-68
2023/03/02 06:26:23;;;;;;;64.00;35.80;;;0.20;97.80;;;;;;5028801;28;20021;-68
2023/03/02 06:28:49;;;;;;;66.50;39.65;;;0.20;97.60;;;;;;5030970;28;20117;-67
2023/03/02 06:31:14;;;;;;;68.38;38.70;;;0.20;98.00;;;;;;5025005;28;20037;-67
2023/03/02 06:33:40;;;;;;;68.72;37.95;;;0.20;98.00;;;;;;5025042;28;20326;-67
2023/03/02 06:36:05;;;;;;;68.50;37.50;;;0.30;98.00;;;;;;5027905;28;20030;-67
2023/03/02 06:38:31;;;;;;;66.68;36.35;;;0.30;98.00;;;;;;5029025;28;20100;-68
2023/03/02 06:40:57;;;;;;;67.72;37.92;;;0.40;98.00;;;;;;5022900;28;20024;-67
2023/03/02 06:43:22;;;;;;;61.83;36.35;;;0.40;98.00;;;;;;5026278;28;20022;-67
2023/03/02 06:45:49;;;;;;;63.75;35.55;;;0.40;98.00;;;;;;5028230;28;20033;-67
2023/03/02 06:48:15;;;;;;;66.05;36.40;;;0.40;98.00;;;;;;5033895;28;20026;-67
2023/03/02 06:50:40;;;;;;;66.07;36.60;;;0.50;98.00;;;;;;5029765;28;20448;-67
2023/03/02 06:53:09;;;;;;;67.80;34.45;;;0.50;98.00;;;;;;5033724;28;20029;-67
2023/03/02 06:55:34;;;;;;;62.65;34.83;;;0.40;98.00;;;;;;5032408;28;20357;-67
2023/03/02 06:58:00;;;;;;;61.10;34.45;;;0.40;98.00;;;;;;5029114;28;20128;-68
2023/03/02 07:00:27;;;;;;;57.92;33.90;;;0.30;98.00;;;;;;5027878;28;20433;-67
2023/03/02 07:02:54;;;;;;;62.97;34.53;;;0.40;98.00;;;;;;5027730;28;20033;-67
2023/03/02 07:05:21;;;;;;;63.00;34.53;;;0.40;98.00;;;;;;5027151;28;20156;-67
2023/03/02 07:07:46;;;;;;;65.88;35.97;;;0.50;98.00;;;;;;5030703;28;20072;-68
2023/03/02 07:10:12;;;;;;;66.25;36.03;;;0.50;98.00;;;;;;5027377;28;20379;-67
2023/03/02 07:12:39;;;;;;;72.35;36.90;;;0.50;98.00;;;;;;5029357;28;20099;-67
2023/03/02 07:15:09;;;;;;;59.10;34.33;;;0.60;98.00;;;;;;5032451;28;20041;-67
2023/03/02 07:17:36;;;;;;;55.38;31.67;;;0.60;98.00;;;;;;5030374;28;20477;-67
2023/03/02 07:20:04;;;;;;;63.72;34.53;;;0.80;98.00;;;;;;5030361;28;20460;-68
2023/03/02 07:22:29;;;;;;;61.35;34.78;;;1.00;98.00;;;;;;5031335;28;20013;-68
2023/03/02 07:24:58;;;;;;;64.45;35.13;;;1.10;98.00;;;;;;5033945;28;20438;-68
2023/03/02 07:27:26;;;;;;;57.75;32.75;;;1.10;98.00;;;;;;5057957;28;20090;-68
2023/03/02 07:29:52;;;;;;;64.82;36.05;;;1.10;98.00;;;;;;5031476;28;20036;-67
2023/03/02 07:32:17;;;;;;;63.55;36.95;;;1.10;98.00;;;;;;5016759;28;20414;-68
2023/03/02 07:34:43;;;;;;;69.55;34.80;;;0.90;98.00;;;;;;5025958;28;20028;-68
2023/03/02 07:37:09;;;;;;;61.70;33.90;;;0.80;98.00;;;;;;5031388;28;20056;-68
2023/03/02 07:39:34;;;;;;;65.15;35.08;;;0.80;98.00;;;;;;5027628;28;20045;-68
2023/03/02 07:42:03;;;;;;;60.53;32.60;;;0.80;98.00;;;;;;5033922;28;20029;-68
2023/03/02 07:44:29;;;;;;;62.72;35.22;;;0.80;98.00;;;;;;5031090;28;20040;-68
2023/03/02 07:46:55;;;;;;;59.55;32.47;;;0.80;98.00;;;;;;5015794;28;20035;-68
2023/03/02 07:49:21;;;;;;;63.72;34.10;;;1.00;98.00;;;;;;5030041;28;20082;-68
2023/03/02 07:51:46;;;;;;;61.38;34.00;;;1.00;98.00;;;;;;5029969;28;20034;-68
2023/03/02 07:54:12;;;;;;;57.58;33.28;;;1.10;98.00;;;;;;5030907;28;20025;-67
2023/03/02 07:56:38;;;;;;;65.63;35.55;;;1.30;98.00;;;;;;5031477;28;20025;-68
2023/03/02 07:59:03;;;;;;;75.25;39.40;;;1.40;98.00;;;;;;5028542;28;20037;-67
2023/03/02 08:01:38;;;;;;;61.90;34.35;;;1.50;98.00;;;;;;5028626;28;20017;-68
2023/03/02 08:04:04;;;;;;;72.30;38.28;;;1.40;98.00;;;;;;5057885;28;20026;-67
2023/03/02 08:06:29;;;;;;;64.95;36.65;;;1.40;98.00;;;;;;5032911;28;20025;-68
2023/03/02 08:08:56;;;;;;;64.88;37.15;;;1.40;98.00;;;;;;5028833;28;20061;-67
2023/03/02 08:11:21;;;;;;;65.05;36.88;;;1.40;98.00;;;;;;5024478;28;20034;-68
2023/03/02 08:13:50;;;;;;;58.58;34.88;;;1.60;98.00;;;;;;5031241;28;20446;-67
2023/03/02 08:16:15;;;;;;;58.92;33.97;;;1.60;98.00;;;;;;5030999;28;20021;-67
2023/03/02 08:18:41;;;;;;;64.05;36.53;;;1.60;98.00;;;;;;5031596;28;20112;-68
2023/03/02 08:21:16;;;;;;;66.90;35.72;;;1.70;98.00;;;;;;5033012;28;20473;-67
2023/03/02 08:23:42;;;;;;;69.32;35.60;;;1.70;98.00;;;;;;5024313;28;20115;-67
2023/03/02 08:26:08;;;;;;;60.00;34.97;;;1.70;98.00;;;;;;5033069;28;20327;-67
2023/03/02 08:28:34;;;;;;;58.95;32.60;;;1.70;98.00;;;;;;5031684;28;20033;-67
2023/03/02 08:31:02;;;;;;;61.65;33.22;;;1.80;98.00;;;;;;5029453;28;20049;-67
2023/03/02 08:33:31;;;;;;;62.35;33.92;;;1.80;98.00;;;;;;5026896;28;20028;-67
2023/03/02 08:36:07;;;;;;;60.85;34.22;;;1.80;98.00;;;;;;5038467;28;20029;-67
2023/03/02 08:38:34;;;;;;;59.33;32.65;;;1.80;98.00;;;;;;5035841;28;20156;-67
2023/03/02 08:41:06;;;;;;;59.58;33.42;;;1.90;98.00;;;;;;5050638;28;20032;-67
2023/03/02 08:43:35;;;;;;;59.85;32.53;;;1.90;98.00;;;;;;5034286;28;20030;-67
2023/03/02 08:46:01;;;;;;;62.25;35.35;;;1.90;98.00;;;;;;5016295;28;20030;-67
2023/03/02 08:48:27;;;;;;;61.53;34.42;;;1.80;98.00;;;;;;5017516;28;20113;-67
2023/03/02 08:50:57;;;;;;;62.33;33.25;;;1.70;98.00;;;;;;5031666;28;20037;-67
2023/03/02 08:53:23;;;;;;;60.25;33.95;;;1.60;98.00;;;;;;5030280;28;20151;-67
2023/03/02 08:55:49;;;;;;;58.30;33.53;;;1.60;98.00;;;;;;5029948;28;20424;-67
2023/03/02 08:58:18;;;;;;;58.85;32.85;;;1.60;98.00;;;;;;5029464;28;20049;-67
2023/03/02 09:00:44;;;;;;;61.88;33.85;;;1.50;98.00;;;;;;5029233;28;20049;-67
2023/03/02 09:03:09;;;;;;;64.07;35.55;;;1.50;98.00;;;;;;5030930;28;20071;-67
2023/03/02 09:05:35;;;;;;;63.08;34.45;;;1.50;98.00;;;;;;5031367;28;20323;-67
2023/03/02 09:08:03;;;;;;;58.97;33.75;;;1.60;98.00;;;;;;5032950;28;20384;-66
2023/03/02 09:10:29;;;;;;;57.78;31.70;;;1.70;98.00;;;;;;5025649;28;20033;-67
2023/03/02 09:12:54;;;;;;;55.97;32.72;;;1.70;98.00;;;;;;5029848;28;20410;-66
2023/03/02 09:15:20;;;;;;;53.50;31.95;;;2.00;98.00;;;;;;5025259;28;20047;-66
2023/03/02 09:17:46;;;;;;;57.75;32.70;;;2.30;98.00;;;;;;5031169;28;20342;-66
2023/03/02 09:20:11;;;;;;;55.22;32.53;;;2.30;98.00;;;;;;5029735;28;20026;-66
2023/03/02 09:22:37;;;;;;;55.35;32.78;;;2.40;98.00;;;;;;5029758;28;20104;-68
2023/03/02 09:25:04;;;;;;;63.90;37.08;;;2.50;98.00;;;;;;5029583;28;20032;-68
2023/03/02 09:27:30;;;;;;;62.75;33.58;;;2.30;98.00;;;;;;5026715;28;20030;-67
2023/03/02 09:29:56;;;;;;;63.83;33.97;;;2.30;98.00;;;;;;5030172;28;20033;-67
2023/03/02 09:32:22;;;;;;;57.80;33.92;;;2.60;98.00;;;;;;5027277;28;20113;-67
2023/03/02 09:34:48;;;;;;;68.30;33.65;;;2.70;97.80;;;;;;5028509;28;20029;-67
2023/03/02 09:37:14;;;;;;;66.03;36.50;;;2.90;97.50;;;;;;5029351;28;20025;-67
2023/03/02 09:39:39;;;;;;;56.88;33.88;;;2.80;97.30;;;;;;5029945;28;20178;-67
2023/03/02 09:42:40;;;;;;;60.55;34.97;;;2.80;97.60;;;;;;5024276;28;20029;-67
2023/03/02 09:45:38;;;;;;;53.33;32.63;;;3.00;97.40;;;;;;5021391;28;20030;-67
2023/03/02 09:48:31;;;;;;;53.75;31.95;;;3.10;97.10;;;;;;5027795;28;20033;-67
2023/03/02 09:51:24;;;;;;;58.65;35.05;;;3.00;97.30;;;;;;5033301;28;20084;-67
2023/03/02 09:53:59;;;;;;;52.30;30.75;;;3.30;97.30;;;;;;5030970;28;20083;-67
2023/03/02 09:56:25;;;;;;;55.65;33.20;;;3.40;96.50;;;;;;5027959;28;20156;-67
2023/03/02 09:59:03;;;;;;;58.45;34.63;;;3.40;96.40;;;;;;5034965;28;20046;-67
2023/03/02 10:01:44;;;;;;;53.88;31.48;;;3.20;96.60;;;;;;5027820;28;20021;-67
2023/03/02 10:04:21;;;;;;;58.67;32.83;;;3.20;96.90;;;;;;5033692;28;20037;-66
2023/03/02 10:06:54;;;;;;;54.85;31.55;;;3.10;96.70;;;;;;5026727;28;20066;-67
2023/03/02 10:09:20;;;;;;;58.92;32.60;;;3.20;96.60;;;;;;5018343;28;20052;-67
2023/03/02 10:11:53;;;;;;;59.05;35.40;;;3.40;96.70;;;;;;5022285;28;20029;-67
2023/03/02 10:14:43;;;;;;;53.92;32.25;;;3.40;95.80;;;;;;5028067;28;20440;-67
2023/03/02 10:17:27;;;;;;;54.95;32.03;;;3.30;96.40;;;;;;5032288;28;20052;-67
2023/03/02 10:19:59;;;;;;;61.10;35.42;;;3.30;96.60;;;;;;5034286;28;20087;-67
2023/03/02 10:22:40;;;;;;;55.33;31.92;;;3.40;96.40;;;;;;5031083;28;20469;-66
2023/03/02 10:25:35;;;;;;;58.63;31.48;;;3.40;95.90;;;;;;5016564;28;20044;-66
2023/03/02 10:28:15;;;;;;;53.45;30.65;;;3.40;96.40;;;;;;5017102;28;20061;-67
2023/03/02 10:30:41;;;;;;;62.00;32.78;;;3.60;96.00;;;;;;5017672;28;20334;-66
2023/03/02 10:33:18;;;;;;;49.78;29.13;;;3.90;95.50;;;;;;5025828;28;20104;-67
2023/03/02 10:35:51;;;;;;;65.53;33.55;;;4.20;94.70;;;;;;5022102;28;20052;-66
2023/03/02 10:38:20;;;;;;;55.22;33.22;;;4.50;93.70;;;;;;5028113;28;20432;-67
2023/03/02 10:40:55;;;;;;;52.28;30.98;;;4.50;93.10;;;;;;5028570;28;20329;-66
2023/03/02 10:43:44;;;;;;;50.10;30.52;;;4.40;93.30;;;;;;5015955;28;20037;-67
2023/03/02 10:46:14;;;;;;;56.30;32.58;;;4.70;93.00;;;;;;5033785;28;20060;-67
2023/03/02 10:48:51;;;;;;;52.53;31.40;;;4.60;92.40;;;;;;5019304;28;20022;-67
2023/03/02 10:51:28;;;;;;;50.40;31.00;;;4.40;93.60;;;;;;5000214;28;20116;-67
2023/03/02 10:54:11;;;;;;;53.25;31.52;;;4.50;93.60;;;;;;5030827;28;20018;-67
2023/03/02 10:56:37;;;;;;;49.88;29.05;;;4.60;92.80;;;;;;5027474;28;20025;-66
2023/03/02 10:59:31;;;;;;;48.10;30.02;;;4.50;92.80;;;;;;5035380;28;20136;-67
2023/03/02 11:02:09;;;;;;;51.05;30.88;;;4.60;93.00;;;;;;5030750;28;20029;-66
2023/03/02 11:04:34;;;;;;;47.55;30.08;;;4.40;93.50;;;;;;5015602;28;20041;-66
2023/03/02 11:07:16;;;;;;;52.38;30.02;;;4.30;93.50;;;;;;5016841;28;20030;-66
2023/03/02 11:09:42;;;;;;;50.72;31.52;;;4.20;93.80;;;;;;5019458;28;20026;-67
2023/03/02 11:12:17;;;;;;;55.95;31.02;;;4.10;94.70;;;;;;5022816;28;20049;-66
2023/03/02 11:14:46;;;;;;;55.50;31.80;;;4.10;94.50;;;;;;5031490;28;20099;-67
2023/03/02 11:17:29;;;;;;;51.13;29.27;;;4.30;94.70;;;;;;5020400;28;20030;-66
2023/03/02 11:19:55;;;;;;;49.50;29.65;;;4.50;94.70;;;;;;5035285;28;20025;-66
2023/03/02 11:22:26;;;;;;;57.05;34.25;;;4.60;93.50;;;;;;5035366;28;20292;-67
2023/03/02 11:24:55;;;;;;;51.90;31.92;;;4.60;93.50;;;;;;5033484;28;20029;-66
2023/03/02 11:27:26;;;;;;;55.65;32.33;;;4.60;93.10;;;;;;5034992;28;20087;-66
2023/03/02 11:30:18;;;;;;;49.90;29.40;;;4.30;94.10;;;;;;5036174;28;20021;-66
2023/03/02 11:33:00;;;;;;;55.10;31.40;;;4.20;94.50;;;;;;5029585;28;20017;-66
2023/03/02 11:35:34;;;;;;;55.72;32.80;;;4.40;94.50;;;;;;5038684;28;20021;-67
2023/03/02 11:38:30;;;;;;;54.28;32.63;;;4.60;93.50;;;;;;5023486;28;20069;-67
2023/03/02 11:41:34;;;;;;;53.17;32.08;;;4.50;93.50;;;;;;5018324;28;20040;-67
2023/03/02 11:44:16;;;;;;;51.60;30.50;;;4.30;93.70;;;;;;5007736;28;20041;-66
2023/03/02 11:46:56;;;;;;;51.30;31.33;;;4.40;94.30;;;;;;5017601;28;20029;-67
2023/03/02 11:49:26;;;;;;;56.53;30.90;;;4.40;94.30;;;;;;5018620;28;20098;-67
2023/03/02 11:51:57;;;;;;;49.70;29.30;;;4.50;93.50;;;;;;5018545;28;20037;-66
2023/03/02 11:54:44;;;;;;;51.80;30.33;;;4.40;93.80;;;;;;5017662;28;20049;-67
2023/03/02 11:57:24;;;;;;;56.22;32.17;;;4.50;93.90;;;;;;5018756;28;20415;-66
2023/03/02 11:59:52;;;;;;;57.28;32.30;;;4.60;93.50;;;;;;5028605;28;20046;-66
2023/03/02 12:02:18;;;;;;;55.35;31.33;;;4.40;93.50;;;;;;5035954;28;20437;-66
2023/03/02 12:04:46;;;;;;;64.03;34.58;;;4.30;93.90;;;;;;5038178;28;20030;-66
2023/03/02 12:07:23;;;;;;;54.90;31.13;;;4.30;94.20;;;;;;5026686;28;20034;-66
2023/03/02 12:10:27;;;;;;;58.90;33.95;;;4.20;94.30;;;;;;5018136;28;20038;-66
2023/03/02 12:13:12;;;;;;;47.38;27.15;;;4.30;94.70;;;;;;5031757;28;20064;-66
2023/03/02 12:15:45;;;;;;;53.20;31.77;;;4.50;94.60;;;;;;5029715;28;20057;-68
2023/03/02 12:18:26;;;;;;;52.92;29.20;;;4.70;93.70;;;;;;5018168;28;20105;-68
2023/03/02 12:20:58;;;;;;;52.60;29.80;;;4.90;93.30;;;;;;5018036;28;20053;-67
2023/03/02 12:23:27;;;;;;;47.22;26.20;;;4.80;92.90;;;;;;5018526;28;20072;-68
2023/03/02 12:26:29;;;;;;;48.95;30.02;;;5.10;92.90;;;;;;5037797;28;20484;-67
2023/03/02 12:29:09;;;;;;;53.00;32.08;;;5.50;91.70;;;;;;5037734;28;20041;-67
2023/03/02 12:31:48;;;;;;;58.72;33.15;;;5.30;91.70;;;;;;5036433;28;20326;-67
2023/03/02 12:34:22;;;;;;;52.50;32.53;;;5.60;91.70;;;;;;5037371;28;20036;-67
2023/03/02 12:36:57;;;;;;;54.75;30.58;;;5.70;90.80;;;;;;5035444;28;20025;-66
2023/03/02 12:39:31;;;;;;;52.20;29.67;;;5.40;91.10;;;;;;5029607;28;20033;-66
2023/03/02 12:42:24;;;;;;;47.92;28.35;;;5.40;91.30;;;;;;5035446;28;20334;-66
2023/03/02 12:45:20;;;;;;;50.95;30.63;;;5.40;91.20;;;;;;5037329;28;20029;-66
2023/03/02 12:47:50;;;;;;;52.25;29.83;;;5.60;91.50;;;;;;5036356;28;20029;-67
2023/03/02 12:50:37;;;;;;;51.63;30.05;;;5.70;90.50;;;;;;5037238;28;20026;-67
2023/03/02 12:53:05;;;;;;;43.75;28.27;;;5.80;90.60;;;;;;5025178;28;20034;-67